createdAt,value
2017-01-02T00:02:48.423Z,0
2017-01-02T00:07:48.380Z,0
2017-01-02T00:12:47.591Z,0
2017-01-02T00:17:48.337Z,0
2017-01-02T00:22:47.929Z,0
2017-01-02T00:27:48.287Z,0
2017-01-02T00:32:47.862Z,0
2017-01-02T00:37:48.234Z,0
2017-01-02T00:42:47.443Z,0
2017-01-02T00:47:48.208Z,0
2017-01-02T00:52:48.157Z,0
2017-01-02T00:57:47.352Z,0
2017-01-02T01:02:47.739Z,0
2017-01-02T01:07:47.690Z,0
2017-01-02T01:12:47.273Z,0
2017-01-02T01:17:47.244Z,0
2017-01-02T01:22:47.615Z,0
2017-01-02T01:27:46.800Z,0
2017-01-02T01:32:47.559Z,0
2017-01-02T01:37:47.147Z,0
2017-01-02T01:42:47.504Z,0
2017-01-02T01:47:47.882Z,0
2017-01-02T01:52:47.065Z,0
2017-01-02T01:57:47.047Z,0
2017-01-02T02:02:47.384Z,0
2017-01-02T02:07:46.968Z,0
2017-01-02T02:12:47.363Z,0
2017-01-02T02:17:47.300Z,0
2017-01-02T02:22:47.270Z,0
2017-01-02T02:27:47.667Z,0
2017-01-02T02:32:47.609Z,0
2017-01-02T02:37:47.571Z,0
2017-01-02T02:42:47.147Z,0
2017-01-02T02:47:47.584Z,0
2017-01-02T02:52:47.505Z,0
2017-01-02T02:57:47.067Z,0
2017-01-02T03:02:47.053Z,0
2017-01-02T03:07:47.011Z,0
2017-01-02T03:12:47.364Z,0
2017-01-02T03:17:47.345Z,0
2017-01-02T03:22:47.305Z,0
2017-01-02T03:27:46.892Z,0
2017-01-02T03:32:47.241Z,0
2017-01-02T03:37:46.830Z,0
2017-01-02T03:42:47.183Z,0
2017-01-02T03:47:46.793Z,0
2017-01-02T03:52:46.733Z,0
2017-01-02T03:57:47.097Z,0
2017-01-02T04:02:46.273Z,0
2017-01-02T04:07:46.640Z,0
2017-01-02T04:12:46.615Z,0
2017-01-02T04:17:46.211Z,0
2017-01-02T04:22:46.549Z,0
2017-01-02T04:27:46.115Z,0
2017-01-02T04:32:46.861Z,0
2017-01-02T04:37:46.831Z,0
2017-01-02T04:42:46.410Z,0
2017-01-02T04:47:46.374Z,0
2017-01-02T04:52:46.739Z,0
2017-01-02T04:57:46.301Z,0
2017-01-02T05:02:46.269Z,0
2017-01-02T05:07:46.640Z,0
2017-01-02T05:12:45.819Z,0
2017-01-02T05:17:46.555Z,0
2017-01-02T05:22:46.531Z,0
2017-01-02T05:27:46.493Z,0
2017-01-02T05:32:46.070Z,0
2017-01-02T05:37:46.033Z,0
2017-01-02T05:42:46.384Z,0
2017-01-02T05:47:45.968Z,0
2017-01-02T05:52:45.926Z,0
2017-01-02T05:57:45.904Z,0
2017-01-02T06:02:45.468Z,0
2017-01-02T06:07:46.222Z,0
2017-01-02T06:12:46.187Z,0
2017-01-02T06:17:45.758Z,0
2017-01-02T06:22:45.746Z,0
2017-01-02T06:27:45.692Z,0
2017-01-02T06:32:45.653Z,0
2017-01-02T06:37:45.614Z,0
2017-01-02T06:42:45.579Z,0
2017-01-02T06:47:45.925Z,0
2017-01-02T06:52:45.127Z,0
2017-01-02T06:57:45.861Z,0
2017-01-02T07:02:45.047Z,0
2017-01-02T07:07:45.799Z,0
2017-01-02T07:12:45.785Z,0
2017-01-02T07:17:45.003Z,0
2017-01-02T07:22:45.341Z,0
2017-01-02T07:27:45.719Z,0
2017-01-02T07:32:44.525Z,0
2017-01-02T07:37:45.681Z,0
2017-01-02T07:42:45.667Z,5
2017-01-02T07:47:45.668Z,5
2017-01-02T07:52:45.614Z,10
2017-01-02T07:57:45.204Z,10
2017-01-02T08:02:45.584Z,15
2017-01-02T08:07:45.162Z,20
2017-01-02T08:12:44.746Z,25
2017-01-02T08:17:45.510Z,30
2017-01-02T08:22:45.124Z,30
2017-01-02T08:27:45.085Z,35
2017-01-02T08:32:45.436Z,40
2017-01-02T08:37:45.432Z,40
2017-01-02T08:42:44.240Z,40
2017-01-02T08:47:44.988Z,45
2017-01-02T08:52:44.974Z,45
2017-01-02T08:57:44.949Z,45
2017-01-02T09:02:45.313Z,50
2017-01-02T09:07:44.919Z,55
2017-01-02T09:12:44.880Z,65
2017-01-02T09:17:45.281Z,75
2017-01-02T09:22:45.255Z,90
2017-01-02T09:27:45.213Z,95
2017-01-02T09:32:44.793Z,100
2017-01-02T09:37:44.005Z,100
2017-01-02T09:42:44.747Z,110
2017-01-02T09:47:45.119Z,115
2017-01-02T09:52:44.311Z,125
2017-01-02T09:57:45.072Z,130
2017-01-02T10:02:44.657Z,135
2017-01-02T10:07:45.022Z,135
2017-01-02T10:12:43.854Z,160
2017-01-02T10:17:44.591Z,195
2017-01-02T10:22:44.182Z,220
2017-01-02T10:27:44.953Z,230
2017-01-02T10:32:44.161Z,225
2017-01-02T10:37:43.742Z,200
2017-01-02T10:42:44.115Z,180
2017-01-02T10:47:44.485Z,185
2017-01-02T10:52:44.464Z,205
2017-01-02T10:57:44.844Z,215
2017-01-02T11:02:44.438Z,155
2017-01-02T11:07:44.026Z,235
2017-01-02T11:12:44.772Z,330
2017-01-02T11:17:44.378Z,400
2017-01-02T11:22:44.392Z,345
2017-01-02T11:27:44.352Z,430
2017-01-02T11:32:44.754Z,530
2017-01-02T11:37:44.329Z,1950
2017-01-02T11:42:43.944Z,835
2017-01-02T11:47:44.703Z,300
2017-01-02T11:52:44.694Z,605
2017-01-02T11:57:44.298Z,655
2017-01-02T12:02:44.304Z,265
2017-01-02T12:07:44.302Z,225
2017-01-02T12:12:44.286Z,300
2017-01-02T12:17:44.787Z,280
2017-01-02T12:22:43.848Z,265
2017-01-02T12:27:44.630Z,210
2017-01-02T12:32:44.609Z,190
2017-01-02T12:37:44.199Z,145
2017-01-02T12:42:43.791Z,110
2017-01-02T12:47:44.170Z,110
2017-01-02T12:52:44.158Z,95
2017-01-02T12:57:44.527Z,90
2017-01-02T13:02:44.514Z,100
2017-01-02T13:07:43.716Z,100
2017-01-02T13:12:44.077Z,95
2017-01-02T13:17:44.067Z,85
2017-01-02T13:22:44.039Z,75
2017-01-02T13:27:43.633Z,75
2017-01-02T13:32:43.611Z,70
2017-01-02T13:37:43.591Z,55
2017-01-02T21:22:53.845Z,0
2017-01-02T21:27:53.433Z,0
2017-01-02T21:32:54.182Z,0
2017-01-02T21:37:53.780Z,0
2017-01-02T21:42:54.070Z,0
2017-01-02T21:47:54.037Z,0
2017-01-02T21:52:54.423Z,0
2017-01-02T21:57:54.425Z,0
2017-01-02T22:02:54.354Z,0
2017-01-02T22:07:53.540Z,0
2017-01-02T22:12:53.520Z,0
2017-01-02T22:17:54.287Z,0
2017-01-02T22:22:53.461Z,0
2017-01-02T22:27:54.207Z,0
2017-01-02T22:32:54.171Z,0
2017-01-02T22:37:53.750Z,0
2017-01-02T22:42:53.330Z,0
2017-01-02T22:47:53.312Z,0
2017-01-02T22:52:53.667Z,0
2017-01-02T22:57:53.254Z,0
2017-01-02T23:02:53.970Z,0
2017-01-02T23:07:53.947Z,0
2017-01-02T23:12:53.521Z,0
2017-01-02T23:17:53.497Z,0
2017-01-02T23:22:53.077Z,0
2017-01-02T23:27:53.845Z,0
2017-01-02T23:32:53.400Z,0
2017-01-02T23:37:53.376Z,0
2017-01-02T23:42:52.949Z,0
2017-01-02T23:47:53.316Z,0
2017-01-02T23:52:53.648Z,0
2017-01-02T23:57:53.240Z,0
